createdAt,value
2018-02-14T00:01:24.740Z,97.10
2018-02-14T00:03:52.367Z,97.20
2018-02-14T00:06:20.770Z,97.40
2018-02-14T00:08:48.343Z,97.40
2018-02-14T00:11:16.711Z,97.60
2018-02-14T00:13:44.302Z,97.60
2018-02-14T00:16:11.898Z,97.60
2018-02-14T00:18:39.471Z,97.60
2018-02-14T00:21:07.058Z,97.70
2018-02-14T00:23:34.621Z,97.80
2018-02-14T00:26:02.968Z,97.70
2018-02-14T00:28:30.559Z,97.80
2018-02-14T00:30:58.912Z,97.70
2018-02-14T00:33:26.522Z,97.70
2018-02-14T00:35:54.083Z,98.00
2018-02-14T00:38:21.659Z,97.90
2018-02-14T00:40:49.250Z,97.90
2018-02-14T00:43:16.821Z,97.90
2018-02-14T00:45:44.420Z,98.00
2018-02-14T00:48:12.015Z,98.40
2018-02-14T00:50:39.573Z,98.20
2018-02-14T00:53:07.148Z,98.20
2018-02-14T00:55:34.732Z,98.20
2018-02-14T00:58:02.284Z,98.30
2018-02-14T01:00:29.986Z,98.30
2018-02-14T01:02:57.624Z,98.40
2018-02-14T01:05:25.230Z,98.50
2018-02-14T01:07:52.809Z,98.60
2018-02-14T01:10:20.377Z,98.60
2018-02-14T01:12:47.946Z,98.80
2018-02-14T01:15:15.546Z,98.90
2018-02-14T01:17:43.113Z,98.80
2018-02-14T01:20:10.704Z,98.60
2018-02-14T01:22:38.316Z,98.60
2018-02-14T01:25:06.666Z,98.80
2018-02-14T01:27:34.237Z,98.80
2018-02-14T01:30:02.602Z,99.10
2018-02-14T01:32:30.212Z,99.10
2018-02-14T01:34:57.766Z,98.90
2018-02-14T01:37:25.353Z,98.80
2018-02-14T01:39:52.948Z,98.80
2018-02-14T01:42:20.545Z,98.90
2018-02-14T01:44:48.116Z,99.00
2018-02-14T01:47:15.689Z,99.00
2018-02-14T01:49:43.284Z,98.90
2018-02-14T01:52:10.862Z,98.90
2018-02-14T01:54:39.207Z,98.90
2018-02-14T01:57:06.765Z,98.90
2018-02-14T01:59:34.354Z,98.90
2018-02-14T02:02:02.691Z,99.40
2018-02-14T02:04:30.282Z,99.20
2018-02-14T02:06:57.864Z,99.20
2018-02-14T02:09:26.225Z,99.30
2018-02-14T02:11:53.785Z,99.30
2018-02-14T02:14:21.365Z,99.30
2018-02-14T02:16:49.718Z,99.50
2018-02-14T02:19:17.287Z,99.40
2018-02-14T02:21:45.657Z,99.50
2018-02-14T02:24:13.226Z,99.50
2018-02-14T02:26:41.567Z,99.80
2018-02-14T02:29:09.188Z,99.80
2018-02-14T02:31:36.775Z,99.80
2018-02-14T02:34:04.370Z,99.90
2018-02-14T02:36:31.950Z,99.90
2018-02-14T02:39:00.297Z,99.90
2018-02-14T02:41:27.912Z,99.90
2018-02-14T02:43:55.494Z,99.90
2018-02-14T02:46:23.058Z,99.90
2018-02-14T02:48:51.432Z,99.90
2018-02-14T02:51:19.048Z,99.90
2018-02-14T02:53:47.392Z,99.90
2018-02-14T02:56:14.948Z,99.90
2018-02-14T02:58:42.570Z,99.90
2018-02-14T03:01:10.133Z,99.90
2018-02-14T03:03:37.707Z,99.90
2018-02-14T03:06:05.325Z,99.90
2018-02-14T03:08:33.679Z,99.90
2018-02-14T03:11:01.267Z,99.90
2018-02-14T03:13:29.656Z,99.90
2018-02-14T03:15:57.990Z,99.90
2018-02-14T03:18:25.594Z,99.90
2018-02-14T03:20:53.928Z,99.90
2018-02-14T03:23:21.499Z,99.90
2018-02-14T03:25:49.144Z,99.90
2018-02-14T03:28:16.714Z,99.90
2018-02-14T03:30:44.283Z,99.90
2018-02-14T03:33:11.907Z,99.90
2018-02-14T03:35:39.475Z,99.90
2018-02-14T03:38:07.047Z,99.90
2018-02-14T03:40:34.694Z,99.90
2018-02-14T03:43:02.249Z,99.90
2018-02-14T03:45:29.817Z,99.90
2018-02-14T03:47:57.461Z,99.90
2018-02-14T03:50:25.032Z,99.90
2018-02-14T03:52:52.609Z,99.90
2018-02-14T03:55:20.225Z,99.90
2018-02-14T03:57:47.811Z,99.90
2018-02-14T04:00:15.366Z,99.90
2018-02-14T04:02:42.994Z,99.90
2018-02-14T04:05:11.323Z,99.90
2018-02-14T04:07:38.950Z,99.90
2018-02-14T04:10:06.510Z,99.90
2018-02-14T04:12:34.074Z,99.90
2018-02-14T04:15:01.697Z,99.90
2018-02-14T04:17:30.031Z,99.90
2018-02-14T04:19:57.608Z,99.90
2018-02-14T04:22:25.378Z,99.90
2018-02-14T04:24:52.948Z,99.90
2018-02-14T04:27:20.517Z,99.90
2018-02-14T04:29:48.893Z,99.90
2018-02-14T04:32:16.454Z,99.90
2018-02-14T04:34:45.727Z,99.90
2018-02-14T04:37:13.343Z,99.90
2018-02-14T04:39:40.913Z,99.90
2018-02-14T04:42:08.486Z,99.90
2018-02-14T04:44:36.124Z,99.90
2018-02-14T04:47:03.722Z,99.90
2018-02-14T04:49:31.308Z,99.90
2018-02-14T04:51:58.902Z,99.90
2018-02-14T04:54:26.505Z,99.90
2018-02-14T04:56:54.116Z,99.90
2018-02-14T04:59:21.720Z,99.90
2018-02-14T05:01:49.294Z,99.90
2018-02-14T05:04:16.920Z,99.90
2018-02-14T05:06:44.493Z,99.90
2018-02-14T05:09:12.054Z,99.90
2018-02-14T05:11:39.684Z,99.90
2018-02-14T05:14:07.259Z,99.90
2018-02-14T05:16:34.825Z,99.90
2018-02-14T05:19:02.451Z,99.90
2018-02-14T05:21:30.791Z,99.90
2018-02-14T05:23:58.357Z,99.90
2018-02-14T05:26:25.989Z,99.90
2018-02-14T05:28:53.568Z,99.90
2018-02-14T05:31:21.131Z,99.90
2018-02-14T05:33:48.742Z,99.90
2018-02-14T05:36:16.297Z,99.90
2018-02-14T05:38:43.858Z,99.90
2018-02-14T05:41:11.550Z,99.90
2018-02-14T05:43:39.134Z,99.90
2018-02-14T05:46:06.702Z,99.90
2018-02-14T05:48:34.363Z,99.90
2018-02-14T05:51:01.930Z,99.90
2018-02-14T05:53:29.547Z,99.90
2018-02-14T05:55:57.110Z,99.90
2018-02-14T05:58:24.683Z,99.90
2018-02-14T06:00:52.291Z,99.90
2018-02-14T06:03:19.857Z,99.90
2018-02-14T06:05:47.473Z,99.90
2018-02-14T06:08:15.028Z,99.90
2018-02-14T06:10:42.611Z,99.90
2018-02-14T06:13:10.235Z,99.90
2018-02-14T06:15:37.812Z,99.90
2018-02-14T06:18:06.129Z,99.90
2018-02-14T06:20:33.775Z,99.90
2018-02-14T06:23:01.354Z,99.90
2018-02-14T06:25:28.940Z,99.90
2018-02-14T06:27:56.529Z,99.90
2018-02-14T06:30:24.107Z,99.90
2018-02-14T06:32:53.815Z,99.90
2018-02-14T06:35:21.415Z,99.90
2018-02-14T06:37:48.988Z,99.90
2018-02-14T06:40:16.652Z,99.90
2018-02-14T06:42:44.287Z,99.90
2018-02-14T06:45:12.622Z,99.90
2018-02-14T06:47:40.200Z,99.90
2018-02-14T06:50:07.801Z,99.90
2018-02-14T06:52:35.378Z,99.90
2018-02-14T06:55:02.956Z,99.90
2018-02-14T06:57:30.577Z,99.90
2018-02-14T07:00:01.755Z,99.90
2018-02-14T07:02:29.328Z,99.90
2018-02-14T07:04:56.926Z,99.90
2018-02-14T07:09:58.358Z,99.90
2018-02-14T07:12:25.923Z,99.90
2018-02-14T07:14:53.500Z,99.90
2018-02-14T07:17:21.096Z,99.90
2018-02-14T07:19:48.681Z,99.90
2018-02-14T07:22:16.240Z,99.90
2018-02-14T07:24:43.878Z,99.90
2018-02-14T07:27:11.560Z,99.90
2018-02-14T07:29:39.168Z,99.90
2018-02-14T07:32:06.782Z,99.90
2018-02-14T07:34:34.371Z,99.90
2018-02-14T07:37:01.942Z,99.90
2018-02-14T07:39:29.534Z,99.90
2018-02-14T07:41:57.152Z,99.90
2018-02-14T07:44:24.723Z,99.90
2018-02-14T07:46:53.279Z,99.90
2018-02-14T07:49:20.885Z,99.90
2018-02-14T07:51:48.443Z,99.90
2018-02-14T07:54:16.779Z,99.90
2018-02-14T07:56:44.416Z,99.90
2018-02-14T07:59:12.003Z,99.90
2018-02-14T08:01:39.586Z,99.90
2018-02-14T08:04:07.211Z,99.90
2018-02-14T08:06:34.778Z,99.90
2018-02-14T08:09:02.355Z,99.90
2018-02-14T08:11:29.972Z,99.90
2018-02-14T08:13:57.537Z,99.90
2018-02-14T08:16:25.128Z,99.90
2018-02-14T08:18:52.726Z,99.90
2018-02-14T08:21:21.091Z,99.90
2018-02-14T08:23:49.510Z,99.50
2018-02-14T08:26:17.130Z,99.50
2018-02-14T08:28:44.714Z,99.20
2018-02-14T08:31:12.287Z,98.80
2018-02-14T08:33:39.888Z,98.60
2018-02-14T08:36:07.457Z,98.50
2018-02-14T08:38:35.032Z,98.50
2018-02-14T08:41:03.459Z,97.80
2018-02-14T08:43:31.066Z,97.50
2018-02-14T08:45:59.486Z,96.50
2018-02-14T08:48:27.087Z,96.40
2018-02-14T08:50:56.688Z,95.90
2018-02-14T08:53:24.315Z,95.40
2018-02-14T08:55:51.911Z,94.40
2018-02-14T08:58:19.522Z,94.40
2018-02-14T09:00:47.131Z,93.70
2018-02-14T09:03:14.699Z,93.20
2018-02-14T09:05:42.252Z,93.00
2018-02-14T09:08:09.858Z,92.80
2018-02-14T09:10:37.476Z,92.50
2018-02-14T09:13:07.070Z,92.40
2018-02-14T09:15:34.640Z,92.20
2018-02-14T09:18:02.253Z,91.90
2018-02-14T09:20:29.839Z,91.30
2018-02-14T09:22:57.439Z,90.90
2018-02-14T09:25:25.083Z,90.00
2018-02-14T09:27:52.706Z,89.00
2018-02-14T09:30:20.286Z,88.40
2018-02-14T09:32:47.891Z,87.60
2018-02-14T09:35:16.217Z,89.50
2018-02-14T09:37:43.798Z,89.40
2018-02-14T09:40:11.391Z,89.90
2018-02-14T09:42:39.734Z,87.80
2018-02-14T09:45:07.324Z,87.80
2018-02-14T09:47:35.677Z,85.50
2018-02-14T09:50:03.287Z,85.50
2018-02-14T09:52:30.872Z,84.60
2018-02-14T09:54:58.454Z,82.20
2018-02-14T09:57:26.060Z,82.00
2018-02-14T09:59:54.426Z,81.20
2018-02-14T10:02:22.807Z,80.80
2018-02-14T10:04:51.132Z,80.00
2018-02-14T10:07:18.764Z,80.00
2018-02-14T10:09:46.347Z,79.30
2018-02-14T10:12:13.951Z,78.30
2018-02-14T10:14:41.561Z,77.00
2018-02-14T10:17:09.154Z,77.20
2018-02-14T10:19:36.749Z,76.20
2018-02-14T10:22:05.082Z,74.40
2018-02-14T10:24:32.670Z,74.40
2018-02-14T10:27:01.126Z,73.40
2018-02-14T10:29:28.723Z,72.30
2018-02-14T10:31:57.059Z,69.60
2018-02-14T10:34:24.643Z,69.60
2018-02-14T10:36:52.230Z,69.00
2018-02-14T10:39:20.584Z,66.70
2018-02-14T10:41:48.189Z,66.70
2018-02-14T10:44:15.778Z,67.00
2018-02-14T10:46:43.338Z,67.20
2018-02-14T10:49:10.932Z,66.30
2018-02-14T10:51:38.485Z,64.70
2018-02-14T10:54:06.086Z,63.10
2018-02-14T10:56:33.660Z,62.60
2018-02-14T10:59:01.240Z,62.40
2018-02-14T11:01:34.446Z,62.30
2018-02-14T11:04:07.854Z,62.00
2018-02-14T11:06:36.233Z,60.00
2018-02-14T11:09:03.826Z,59.70
2018-02-14T11:11:31.392Z,58.20
2018-02-14T11:13:59.031Z,57.90
2018-02-14T11:16:27.355Z,56.90
2018-02-14T11:18:54.936Z,56.80
2018-02-14T11:21:22.509Z,57.00
2018-02-14T11:23:50.074Z,57.20
2018-02-14T11:26:17.657Z,57.60
2018-02-14T11:28:45.996Z,57.50
2018-02-14T11:31:13.554Z,57.50
2018-02-14T11:33:41.125Z,56.90
2018-02-14T11:36:08.686Z,56.90
2018-02-14T11:38:36.284Z,56.10
2018-02-14T11:41:03.836Z,55.70
2018-02-14T11:43:32.165Z,54.80
2018-02-14T11:45:59.751Z,54.80
2018-02-14T11:48:27.309Z,54.70
2018-02-14T11:50:54.908Z,54.00
2018-02-14T11:53:22.468Z,53.90
2018-02-14T11:55:50.075Z,53.70
2018-02-14T11:58:17.643Z,53.40
2018-02-14T12:00:45.236Z,52.90
2018-02-14T12:03:12.851Z,52.30
2018-02-14T12:05:40.418Z,52.50
2018-02-14T12:08:08.032Z,52.30
2018-02-14T12:10:35.714Z,52.30
2018-02-14T12:13:03.303Z,52.40
2018-02-14T12:15:31.382Z,52.10
2018-02-14T12:17:58.954Z,51.50
2018-02-14T12:20:27.336Z,50.80
2018-02-14T12:22:55.704Z,50.80
2018-02-14T12:25:23.374Z,50.80
2018-02-14T12:27:51.042Z,50.30
2018-02-14T12:30:19.382Z,50.30
2018-02-14T12:32:46.974Z,50.30
2018-02-14T12:35:15.323Z,50.30
2018-02-14T12:37:42.904Z,50.30
2018-02-14T12:40:10.466Z,50.30
2018-02-14T12:42:38.049Z,50.20
2018-02-14T12:45:05.632Z,49.70
2018-02-14T12:47:33.212Z,49.40
2018-02-14T12:50:01.814Z,48.20
2018-02-14T12:52:29.387Z,48.40
2018-02-14T12:54:57.039Z,47.90
2018-02-14T12:57:24.602Z,47.20
2018-02-14T12:59:52.182Z,47.40
2018-02-14T13:02:20.538Z,46.50
2018-02-14T13:04:48.197Z,46.40
2018-02-14T13:07:15.848Z,45.30
2018-02-14T13:09:43.435Z,44.70
2018-02-14T13:12:11.777Z,43.90
2018-02-14T13:14:39.374Z,43.80
2018-02-14T13:17:07.734Z,44.20
2018-02-14T13:19:35.365Z,44.20
2018-02-14T13:22:02.930Z,43.70
2018-02-14T13:24:30.511Z,42.90
2018-02-14T13:26:58.108Z,43.30
2018-02-14T13:29:26.436Z,42.90
2018-02-14T13:31:54.026Z,42.90
2018-02-14T13:34:21.597Z,42.70
2018-02-14T13:36:49.931Z,42.70
2018-02-14T13:39:17.524Z,42.70
2018-02-14T13:41:45.083Z,42.70
2018-02-14T13:44:12.644Z,42.20
2018-02-14T13:46:40.224Z,41.90
2018-02-14T13:49:08.591Z,40.20
2018-02-14T13:51:36.913Z,39.80
2018-02-14T13:54:04.490Z,39.30
2018-02-14T13:56:32.054Z,38.50
2018-02-14T13:58:59.619Z,38.30
2018-02-14T14:01:27.211Z,38.00
2018-02-14T14:03:56.043Z,36.60
2018-02-14T14:06:23.918Z,36.50
2018-02-14T14:08:51.514Z,36.90
2018-02-14T14:11:19.062Z,36.50
2018-02-14T14:13:47.655Z,36.50
2018-02-14T14:16:15.983Z,37.40
2018-02-14T14:18:43.616Z,37.10
2018-02-14T14:21:11.194Z,36.60
2018-02-14T14:23:38.771Z,37.40
2018-02-14T14:26:06.373Z,36.10
2018-02-14T14:28:34.039Z,35.70
2018-02-14T14:31:01.623Z,35.90
2018-02-14T14:33:29.217Z,35.60
2018-02-14T14:35:56.824Z,35.30
2018-02-14T14:38:24.402Z,35.70
2018-02-14T14:40:52.151Z,35.70
2018-02-14T14:43:19.768Z,35.80
2018-02-14T14:45:47.343Z,35.90
2018-02-14T14:48:14.940Z,35.00
2018-02-14T14:50:43.256Z,35.10
2018-02-14T14:53:10.845Z,35.10
2018-02-14T14:55:38.442Z,35.50
2018-02-14T14:58:06.030Z,35.60
2018-02-14T15:00:33.647Z,35.60
2018-02-14T15:03:01.990Z,36.30
2018-02-14T15:05:30.341Z,36.50
2018-02-14T15:07:57.906Z,37.10
2018-02-14T15:10:25.547Z,36.80
2018-02-14T15:12:53.186Z,37.00
2018-02-14T15:15:20.831Z,37.10
2018-02-14T15:17:48.431Z,37.30
2018-02-14T15:20:15.984Z,36.40
2018-02-14T15:22:44.396Z,36.10
2018-02-14T15:25:11.986Z,36.20
2018-02-14T15:27:39.582Z,36.40
2018-02-14T15:30:07.902Z,36.60
2018-02-14T15:32:36.231Z,36.70
2018-02-14T15:35:05.584Z,37.30
2018-02-14T15:37:33.158Z,37.30
2018-02-14T15:40:00.737Z,38.40
2018-02-14T15:42:28.285Z,39.50
2018-02-14T15:44:55.895Z,39.90
2018-02-14T15:47:23.470Z,40.30
2018-02-14T15:49:51.099Z,40.80
2018-02-14T15:52:19.440Z,41.80
2018-02-14T15:54:47.000Z,41.30
2018-02-14T15:57:14.603Z,41.40
2018-02-14T15:59:42.195Z,41.60
2018-02-14T16:02:09.798Z,41.70
2018-02-14T16:04:37.395Z,42.10
2018-02-14T16:07:04.971Z,42.10
2018-02-14T16:09:32.573Z,42.20
2018-02-14T16:12:00.149Z,42.30
2018-02-14T16:14:28.545Z,42.60
2018-02-14T16:16:56.151Z,42.50
2018-02-14T16:19:23.727Z,42.80
2018-02-14T16:21:53.317Z,43.00
2018-02-14T16:24:21.499Z,43.20
2018-02-14T16:26:49.091Z,43.60
2018-02-14T16:29:17.432Z,44.00
2018-02-14T16:31:45.040Z,44.00
2018-02-14T16:34:12.606Z,44.50
2018-02-14T16:36:40.197Z,44.90
2018-02-14T16:39:07.787Z,45.00
2018-02-14T16:41:35.352Z,45.10
2018-02-14T16:44:02.942Z,45.60
2018-02-14T16:46:30.515Z,45.90
2018-02-14T16:48:58.089Z,46.20
2018-02-14T16:51:25.673Z,46.70
2018-02-14T16:53:53.271Z,47.70
2018-02-14T16:56:21.612Z,48.40
2018-02-14T16:58:49.219Z,48.40
2018-02-14T17:01:16.810Z,48.90
2018-02-14T17:03:44.387Z,49.60
2018-02-14T17:06:12.017Z,50.10
2018-02-14T17:08:39.634Z,51.10
2018-02-14T17:11:07.215Z,51.40
2018-02-14T17:13:35.572Z,52.20
2018-02-14T17:16:03.142Z,52.10
2018-02-14T17:18:31.488Z,53.10
2018-02-14T17:20:59.106Z,53.00
2018-02-14T17:23:26.692Z,53.70
2018-02-14T17:25:54.291Z,53.90
2018-02-14T17:28:21.880Z,54.10
2018-02-14T17:30:49.504Z,54.40
2018-02-14T17:33:17.878Z,54.80
2018-02-14T17:35:45.495Z,54.80
2018-02-14T17:38:13.091Z,55.20
2018-02-14T17:40:40.663Z,55.80
2018-02-14T17:43:08.234Z,56.30
2018-02-14T17:45:36.678Z,56.70
2018-02-14T17:48:04.247Z,57.50
2018-02-14T17:50:31.824Z,57.80
2018-02-14T17:52:59.404Z,57.90
2018-02-14T17:55:29.084Z,58.70
2018-02-14T17:57:56.646Z,58.70
2018-02-14T18:00:24.218Z,59.50
2018-02-14T18:02:51.805Z,60.50
2018-02-14T18:05:19.429Z,61.60
2018-02-14T18:07:47.013Z,61.60
2018-02-14T18:10:15.387Z,62.30
2018-02-14T18:12:43.745Z,62.30
2018-02-14T18:15:11.348Z,62.30
2018-02-14T18:17:38.937Z,62.70
2018-02-14T18:20:06.557Z,62.90
2018-02-14T18:22:34.163Z,63.90
2018-02-14T18:25:01.721Z,64.40
2018-02-14T18:27:29.311Z,65.80
2018-02-14T18:29:56.932Z,65.30
2018-02-14T18:32:24.523Z,65.40
2018-02-14T18:34:52.100Z,65.50
2018-02-14T18:37:20.464Z,66.30
2018-02-14T18:39:48.096Z,66.30
2018-02-14T18:42:15.661Z,67.00
2018-02-14T18:44:44.034Z,68.40
2018-02-14T18:47:11.623Z,68.40
2018-02-14T18:49:40.003Z,69.90
2018-02-14T18:52:07.616Z,69.90
2018-02-14T18:54:35.241Z,70.50
2018-02-14T18:57:03.572Z,72.40
2018-02-14T18:59:31.152Z,71.70
2018-02-14T19:01:58.745Z,72.70
2018-02-14T19:04:27.077Z,74.40
2018-02-14T19:06:54.696Z,74.40
2018-02-14T19:09:22.363Z,75.30
2018-02-14T19:11:49.962Z,76.40
2018-02-14T19:14:17.546Z,78.00
2018-02-14T19:16:45.150Z,78.60
2018-02-14T19:19:12.741Z,79.30
2018-02-14T19:21:40.300Z,80.10
2018-02-14T19:24:07.907Z,80.90
2018-02-14T19:26:36.268Z,82.10
2018-02-14T19:29:03.847Z,82.10
2018-02-14T19:31:32.224Z,82.90
2018-02-14T19:34:00.566Z,83.70
2018-02-14T19:36:28.170Z,83.70
2018-02-14T19:38:56.505Z,84.80
2018-02-14T19:41:24.099Z,84.80
2018-02-14T19:43:52.447Z,86.20
2018-02-14T19:46:20.064Z,86.20
2018-02-14T19:48:47.633Z,86.80
2018-02-14T19:51:15.208Z,87.50
2018-02-14T19:53:42.802Z,88.20
2018-02-14T19:56:10.397Z,88.70
2018-02-14T19:58:38.013Z,89.20
2018-02-14T20:01:05.641Z,89.90
2018-02-14T20:03:33.233Z,90.10
2018-02-14T20:06:00.853Z,90.40
2018-02-14T20:08:28.438Z,90.70
2018-02-14T20:10:56.808Z,91.10
2018-02-14T20:13:24.379Z,91.10
2018-02-14T20:15:52.027Z,91.30
2018-02-14T20:18:19.706Z,91.50
2018-02-14T20:20:47.289Z,91.60
2018-02-14T20:23:14.894Z,91.60
2018-02-14T20:25:43.394Z,91.50
2018-02-14T20:28:10.999Z,91.90
2018-02-14T20:30:39.390Z,92.50
2018-02-14T20:33:07.772Z,92.60
2018-02-14T20:35:36.766Z,92.70
2018-02-14T20:38:05.103Z,92.80
2018-02-14T20:40:33.499Z,92.70
2018-02-14T20:43:01.102Z,92.70
2018-02-14T20:45:28.691Z,93.00
2018-02-14T20:47:56.585Z,92.90
2018-02-14T20:50:25.162Z,93.00
2018-02-14T20:52:52.730Z,92.90
2018-02-14T20:55:20.292Z,93.20
2018-02-14T20:57:47.893Z,93.30
2018-02-14T21:00:15.492Z,93.50
2018-02-14T21:02:43.095Z,93.30
2018-02-14T21:05:10.661Z,93.30
2018-02-14T21:07:38.230Z,93.40
2018-02-14T21:10:05.827Z,93.20
2018-02-14T21:12:33.434Z,93.20
2018-02-14T21:15:01.762Z,93.30
2018-02-14T21:17:29.334Z,93.30
2018-02-14T21:19:56.937Z,93.30
2018-02-14T21:22:25.348Z,93.60
2018-02-14T21:24:52.942Z,93.50
2018-02-14T21:27:20.507Z,93.70
2018-02-14T21:29:48.110Z,93.80
2018-02-14T21:32:15.728Z,94.00
2018-02-14T21:34:43.294Z,94.10
2018-02-14T21:37:10.876Z,94.20
2018-02-14T21:39:39.275Z,94.20
2018-02-14T21:42:06.859Z,94.20
2018-02-14T21:44:35.226Z,93.90
2018-02-14T21:47:02.790Z,93.90
2018-02-14T21:49:30.386Z,93.70
2018-02-14T21:51:57.950Z,93.70
2018-02-14T21:54:25.531Z,93.80
2018-02-14T21:56:53.899Z,94.20
2018-02-14T21:59:22.244Z,94.30
2018-02-14T22:01:49.882Z,94.20
2018-02-14T22:04:17.453Z,94.40
2018-02-14T22:06:45.032Z,94.30
2018-02-14T22:09:13.409Z,94.50
2018-02-14T22:11:41.016Z,94.40
2018-02-14T22:14:08.605Z,94.60
2018-02-14T22:16:36.187Z,94.80
2018-02-14T22:19:03.772Z,95.00
2018-02-14T22:21:31.525Z,95.00
2018-02-14T22:23:59.150Z,95.30
2018-02-14T22:26:26.782Z,95.10
2018-02-14T22:28:54.377Z,95.10
2018-02-14T22:31:21.937Z,95.30
2018-02-14T22:33:49.507Z,95.60
2018-02-14T22:36:17.081Z,95.70
2018-02-14T22:38:44.680Z,96.00
2018-02-14T22:41:12.286Z,96.00
2018-02-14T22:43:39.842Z,96.20
2018-02-14T22:46:07.442Z,96.40
2018-02-14T22:48:35.777Z,96.90
2018-02-14T22:51:03.356Z,96.60
2018-02-14T22:56:04.851Z,96.90
2018-02-14T22:58:33.231Z,96.90
2018-02-14T23:01:01.568Z,97.00
2018-02-14T23:03:29.148Z,97.00
2018-02-14T23:05:56.771Z,97.10
2018-02-14T23:08:24.366Z,97.10
2018-02-14T23:10:51.951Z,97.40
2018-02-14T23:13:20.293Z,97.50
2018-02-14T23:15:47.882Z,97.40
2018-02-14T23:18:16.252Z,97.60
2018-02-14T23:20:43.895Z,97.60
2018-02-14T23:23:11.475Z,97.90
2018-02-14T23:25:39.556Z,97.50
2018-02-14T23:28:07.929Z,97.40
2018-02-14T23:30:35.517Z,97.30
2018-02-14T23:33:03.104Z,97.40
2018-02-14T23:35:30.675Z,97.60
2018-02-14T23:37:58.276Z,97.40
2018-02-14T23:40:26.634Z,97.30
2018-02-14T23:42:54.231Z,97.30
2018-02-14T23:45:21.857Z,97.10
2018-02-14T23:47:49.425Z,97.00
2018-02-14T23:50:16.985Z,96.80
2018-02-14T23:52:44.580Z,96.80
2018-02-14T23:55:12.163Z,96.70
2018-02-14T23:57:39.729Z,96.70
